Time;durP1;ratioP1;P1;durP2;ratioP2;P2;SDS_P1;SDS_P2;PMS_P1;PMS_P2;Temp;Humidity;BMP_temperature;BMP_pressure;BME280_temperature;BME280_humidity;BME280_pressure;Samples;Min_cycle;Max_cycle;Signal;HPM_P1;HPM_P2
2023/06/20 00:00:20;;;;;;;14.15;6.95;;;21.10;99.90;;;;;;5073179;28;20506;-76
2023/06/20 00:02:45;;;;;;;14.77;7.00;;;21.10;99.90;;;;;;5072924;28;20464;-75
2023/06/20 00:05:11;;;;;;;13.70;7.28;;;21.10;99.90;;;;;;5072956;28;20043;-76
2023/06/20 00:07:36;;;;;;;12.10;6.82;;;21.10;99.90;;;;;;5073207;28;20025;-77
2023/06/20 00:10:03;;;;;;;17.02;8.68;;;21.10;99.90;;;;;;5078035;28;20365;-77
2023/06/20 00:12:28;;;;;;;14.57;7.03;;;21.10;99.90;;;;;;5092763;28;20048;-75
2023/06/20 00:14:54;;;;;;;13.30;7.25;;;21.10;99.90;;;;;;5079396;28;20148;-77
2023/06/20 00:17:20;;;;;;;17.63;7.95;;;21.10;99.90;;;;;;5073072;28;20025;-74
2023/06/20 00:19:45;;;;;;;15.57;6.95;;;21.10;99.90;;;;;;5072830;28;20495;-74
2023/06/20 00:22:11;;;;;;;15.48;7.30;;;21.10;99.90;;;;;;5072765;28;20432;-74
2023/06/20 00:24:36;;;;;;;16.45;7.60;;;21.10;99.90;;;;;;5072799;28;20525;-74
2023/06/20 00:27:03;;;;;;;15.13;7.93;;;21.10;99.90;;;;;;5076520;28;20486;-75
2023/06/20 00:29:29;;;;;;;16.05;7.45;;;21.10;99.90;;;;;;5090118;28;20032;-75
2023/06/20 00:31:54;;;;;;;16.17;7.60;;;21.10;99.90;;;;;;5092771;28;20039;-74
2023/06/20 00:34:20;;;;;;;14.45;6.90;;;21.10;99.90;;;;;;5092538;28;20106;-74
2023/06/20 00:36:46;;;;;;;13.60;7.07;;;21.10;99.90;;;;;;5093068;28;20035;-74
2023/06/20 00:39:11;;;;;;;13.85;6.40;;;21.10;99.90;;;;;;5079262;28;20361;-75
2023/06/20 00:41:38;;;;;;;13.63;6.65;;;21.10;99.90;;;;;;5072374;28;20052;-73
2023/06/20 00:44:04;;;;;;;12.65;6.25;;;21.20;99.90;;;;;;5072677;28;20465;-75
2023/06/20 00:46:32;;;;;;;14.32;6.70;;;21.20;99.90;;;;;;5072455;28;20032;-75
2023/06/20 00:48:59;;;;;;;11.30;5.80;;;21.20;99.90;;;;;;5072405;28;20036;-75
2023/06/20 00:51:28;;;;;;;14.73;6.15;;;21.20;99.90;;;;;;5077706;28;20059;-76
2023/06/20 00:53:54;;;;;;;11.93;6.05;;;21.20;99.90;;;;;;5073563;28;20032;-75
2023/06/20 00:56:20;;;;;;;11.82;5.63;;;21.30;99.90;;;;;;5072548;28;20035;-77
2023/06/20 00:58:46;;;;;;;13.32;5.50;;;21.30;99.90;;;;;;5071990;28;20103;-77
2023/06/20 01:01:11;;;;;;;12.02;5.93;;;21.30;99.90;;;;;;5078638;28;20028;-74
2023/06/20 01:03:37;;;;;;;11.30;6.00;;;21.30;99.90;;;;;;5092385;28;20020;-76
2023/06/20 01:06:22;;;;;;;13.25;5.93;;;21.30;99.90;;;;;;5082192;28;20081;-75
2023/06/20 01:08:59;;;;;;;13.50;6.30;;;21.30;99.90;;;;;;5092024;28;20055;-76
2023/06/20 01:11:31;;;;;;;9.90;5.35;;;21.30;99.90;;;;;;5088514;28;20023;-75
2023/06/20 01:14:12;;;;;;;9.55;5.70;;;21.30;99.90;;;;;;5072144;28;20047;-76
2023/06/20 01:17:01;;;;;;;9.30;5.55;;;21.40;99.90;;;;;;5083835;28;20024;-74
2023/06/20 01:19:54;;;;;;;11.82;5.63;;;21.30;99.90;;;;;;5075036;28;20025;-76
2023/06/20 01:22:57;;;;;;;11.48;5.97;;;21.30;99.90;;;;;;5071990;28;20032;-76
2023/06/20 01:25:59;;;;;;;14.88;6.32;;;21.30;99.90;;;;;;5085143;28;20067;-76
2023/06/20 01:28:30;;;;;;;12.10;6.20;;;21.30;99.90;;;;;;5092135;28;20024;-74
2023/06/20 01:31:15;;;;;;;11.98;5.70;;;21.30;99.90;;;;;;5092067;28;20154;-75
2023/06/20 01:33:53;;;;;;;10.55;6.00;;;21.30;99.90;;;;;;5091414;28;20052;-76
2023/06/20 01:36:21;;;;;;;11.35;5.55;;;21.30;99.90;;;;;;5089828;28;20143;-76
2023/06/20 01:38:51;;;;;;;9.63;5.68;;;21.30;99.90;;;;;;5091978;28;20043;-75
2023/06/20 01:41:20;;;;;;;10.23;5.75;;;21.20;99.90;;;;;;5091826;28;20066;-76
2023/06/20 01:43:48;;;;;;;13.60;6.03;;;21.20;99.90;;;;;;5091229;28;20372;-75
2023/06/20 01:46:14;;;;;;;13.35;6.60;;;21.20;99.90;;;;;;5091044;28;20110;-75
2023/06/20 01:48:41;;;;;;;11.40;6.05;;;21.20;99.90;;;;;;5090421;28;20056;-75
2023/06/20 01:51:07;;;;;;;12.93;6.13;;;21.20;99.90;;;;;;5085554;28;20035;-76
2023/06/20 01:53:35;;;;;;;12.98;6.35;;;21.20;99.90;;;;;;5073760;28;20037;-76
2023/06/20 01:56:03;;;;;;;11.88;6.03;;;21.20;99.90;;;;;;5090230;28;20493;-76
2023/06/20 01:58:31;;;;;;;11.80;6.18;;;21.20;99.90;;;;;;5091302;28;20029;-77
2023/06/20 02:00:58;;;;;;;15.18;5.97;;;21.20;99.90;;;;;;5091718;28;20105;-77
2023/06/20 02:03:27;;;;;;;11.82;6.03;;;21.20;99.90;;;;;;5083600;28;20039;-74
2023/06/20 02:05:55;;;;;;;13.25;5.93;;;21.20;99.90;;;;;;5091781;28;20032;-74
2023/06/20 02:08:22;;;;;;;12.40;6.53;;;21.20;99.90;;;;;;5089814;28;20032;-74
2023/06/20 02:10:49;;;;;;;11.10;6.18;;;21.10;99.90;;;;;;5072365;28;20036;-76
2023/06/20 02:13:15;;;;;;;12.20;6.68;;;21.20;99.90;;;;;;5083638;28;20110;-75
2023/06/20 02:15:41;;;;;;;12.85;6.45;;;21.20;99.90;;;;;;5083098;28;20169;-76
2023/06/20 02:18:06;;;;;;;13.27;6.50;;;21.10;99.90;;;;;;5079089;28;20357;-75
2023/06/20 02:20:33;;;;;;;12.40;6.05;;;21.10;99.90;;;;;;5093584;28;20020;-74
2023/06/20 02:23:01;;;;;;;11.68;5.90;;;21.10;99.90;;;;;;5095404;28;20031;-76
2023/06/20 02:25:31;;;;;;;12.18;6.15;;;21.10;99.90;;;;;;5094886;28;20020;-76
2023/06/20 02:27:57;;;;;;;11.98;6.32;;;21.10;99.90;;;;;;5075253;28;20424;-75
2023/06/20 02:30:26;;;;;;;14.00;6.75;;;21.10;99.90;;;;;;5075219;28;20107;-76
2023/06/20 02:32:54;;;;;;;15.23;6.43;;;21.00;99.90;;;;;;5093814;28;20491;-75
2023/06/20 02:35:22;;;;;;;13.25;6.65;;;21.00;99.90;;;;;;5075005;28;20044;-74
2023/06/20 02:37:49;;;;;;;11.15;6.25;;;21.00;99.90;;;;;;5078913;28;20041;-74
2023/06/20 02:40:14;;;;;;;12.52;6.57;;;21.00;99.90;;;;;;5094892;28;20089;-78
2023/06/20 02:42:40;;;;;;;15.27;6.75;;;21.00;99.90;;;;;;5095631;28;20032;-76
2023/06/20 02:45:07;;;;;;;13.00;7.05;;;21.00;99.90;;;;;;5095264;28;20099;-75
2023/06/20 02:48:10;;;;;;;13.52;7.00;;;20.90;99.90;;;;;;5093709;28;20433;-76
2023/06/20 02:50:55;;;;;;;12.10;6.55;;;20.90;99.90;;;;;;5088924;28;20538;-74
2023/06/20 02:53:42;;;;;;;13.60;6.68;;;20.80;99.90;;;;;;5091062;28;20040;-75
2023/06/20 02:56:12;;;;;;;12.63;6.50;;;20.80;99.90;;;;;;5088521;28;20109;-77
2023/06/20 02:58:41;;;;;;;12.48;6.63;;;20.80;99.90;;;;;;5085485;28;20024;-74
2023/06/20 03:01:07;;;;;;;12.25;6.60;;;20.80;99.90;;;;;;5080390;28;20087;-76
2023/06/20 03:03:41;;;;;;;14.82;7.32;;;20.70;99.90;;;;;;5074658;28;20029;-75
2023/06/20 03:06:07;;;;;;;13.43;6.80;;;20.70;99.90;;;;;;5074598;28;20034;-74
2023/06/20 03:08:37;;;;;;;16.52;7.70;;;20.70;99.90;;;;;;5074585;28;20353;-77
2023/06/20 03:11:02;;;;;;;14.73;7.32;;;20.60;99.90;;;;;;5074540;28;20029;-73
2023/06/20 03:13:28;;;;;;;17.50;8.15;;;20.60;99.90;;;;;;5074057;28;20032;-76
2023/06/20 03:15:55;;;;;;;15.93;8.07;;;20.60;99.90;;;;;;5074537;28;20032;-74
2023/06/20 03:18:20;;;;;;;17.80;8.00;;;20.60;99.90;;;;;;5074383;28;20028;-76
2023/06/20 03:20:48;;;;;;;16.92;8.57;;;20.60;99.90;;;;;;5074466;28;20376;-76
2023/06/20 03:23:14;;;;;;;17.05;8.63;;;20.60;99.90;;;;;;5074370;28;20028;-75
2023/06/20 03:25:40;;;;;;;17.10;8.65;;;20.60;99.90;;;;;;5074606;28;20025;-77
2023/06/20 03:28:05;;;;;;;14.38;8.57;;;20.60;99.90;;;;;;5074200;28;20028;-74
2023/06/20 03:30:31;;;;;;;16.63;8.27;;;20.60;99.90;;;;;;5074240;28;20055;-76
2023/06/20 03:32:57;;;;;;;19.45;8.27;;;20.50;99.90;;;;;;5073616;28;20148;-75
2023/06/20 03:35:22;;;;;;;16.80;9.27;;;20.50;99.90;;;;;;5074216;28;20392;-76
2023/06/20 03:37:48;;;;;;;19.63;8.13;;;20.50;99.90;;;;;;5073924;28;20418;-77
2023/06/20 03:40:13;;;;;;;20.02;9.10;;;20.50;99.90;;;;;;5073833;28;20090;-76
2023/06/20 03:42:39;;;;;;;16.55;8.65;;;20.50;99.90;;;;;;5073409;28;20419;-76
2023/06/20 03:45:05;;;;;;;17.42;8.32;;;20.50;99.90;;;;;;5073735;28;20020;-77
2023/06/20 03:47:31;;;;;;;16.30;9.27;;;20.50;99.90;;;;;;5073706;28;20472;-75
2023/06/20 03:49:56;;;;;;;16.92;8.95;;;20.50;99.90;;;;;;5072163;28;20051;-74
2023/06/20 03:52:22;;;;;;;18.10;8.85;;;20.50;99.90;;;;;;5073523;28;20404;-76
2023/06/20 03:54:47;;;;;;;17.55;9.02;;;20.50;99.90;;;;;;5073244;28;20498;-76
2023/06/20 03:57:13;;;;;;;17.75;9.02;;;20.50;99.90;;;;;;5073380;28;20368;-74
2023/06/20 03:59:38;;;;;;;17.60;8.68;;;20.50;99.90;;;;;;5073423;28;20031;-74
2023/06/20 04:02:04;;;;;;;16.83;8.32;;;20.50;99.90;;;;;;5073545;28;20100;-76
2023/06/20 04:04:30;;;;;;;16.08;8.80;;;20.50;99.90;;;;;;5073486;28;20037;-74
2023/06/20 04:06:55;;;;;;;18.42;9.38;;;20.50;99.90;;;;;;5073444;28;20038;-75
2023/06/20 04:09:26;;;;;;;18.67;9.02;;;20.60;99.90;;;;;;5073492;28;20115;-76
2023/06/20 04:11:53;;;;;;;15.82;9.30;;;20.60;99.90;;;;;;5073084;28;20476;-74
2023/06/20 04:14:18;;;;;;;18.75;9.50;;;20.60;99.90;;;;;;5073217;28;20025;-74
2023/06/20 04:16:44;;;;;;;17.45;9.23;;;20.70;99.90;;;;;;5073522;28;20483;-75
2023/06/20 04:19:10;;;;;;;17.58;9.35;;;20.80;99.90;;;;;;5072831;28;20033;-76
2023/06/20 04:21:36;;;;;;;19.70;9.77;;;20.80;99.90;;;;;;5073618;28;20028;-76
2023/06/20 04:24:01;;;;;;;17.67;9.68;;;20.80;99.90;;;;;;5073520;28;20051;-73
2023/06/20 04:26:29;;;;;;;18.17;9.38;;;20.90;99.90;;;;;;5073316;28;20032;-77
2023/06/20 04:28:55;;;;;;;16.67;9.57;;;20.90;99.90;;;;;;5073149;28;20464;-75
2023/06/20 04:31:21;;;;;;;16.95;9.68;;;20.90;99.90;;;;;;5073265;28;20085;-73
2023/06/20 04:33:46;;;;;;;17.30;9.57;;;20.90;99.90;;;;;;5073253;28;20060;-75
2023/06/20 04:36:15;;;;;;;17.35;9.60;;;20.90;99.90;;;;;;5072886;28;20495;-75
2023/06/20 04:38:43;;;;;;;19.92;9.10;;;21.00;99.90;;;;;;5072728;28;20031;-75
2023/06/20 04:41:10;;;;;;;16.25;9.27;;;21.00;99.90;;;;;;5072466;28;20028;-75
2023/06/20 04:43:36;;;;;;;19.67;9.52;;;21.00;99.90;;;;;;5072053;28;20028;-75
2023/06/20 04:46:03;;;;;;;21.80;10.02;;;21.00;99.90;;;;;;5072799;28;20476;-75
2023/06/20 04:48:29;;;;;;;22.15;10.57;;;21.00;99.90;;;;;;5072659;28;20056;-74
2023/06/20 04:50:56;;;;;;;15.98;9.48;;;21.00;99.90;;;;;;5072975;28;20032;-73
2023/06/20 04:53:22;;;;;;;21.42;10.43;;;21.00;99.90;;;;;;5072287;28;20111;-74
2023/06/20 04:55:48;;;;;;;16.92;10.02;;;21.10;99.90;;;;;;5072799;28;20095;-73
2023/06/20 04:58:14;;;;;;;21.17;10.43;;;21.10;99.90;;;;;;5072553;28;20487;-76
2023/06/20 05:00:40;;;;;;;16.73;9.63;;;21.10;99.90;;;;;;5072686;28;20031;-75
2023/06/20 05:03:06;;;;;;;21.13;10.35;;;21.20;99.90;;;;;;5072372;28;20037;-74
2023/06/20 05:05:31;;;;;;;17.92;10.05;;;21.30;99.90;;;;;;5072289;28;20550;-76
2023/06/20 05:07:57;;;;;;;18.33;10.10;;;21.30;99.90;;;;;;5072419;28;20021;-75
2023/06/20 05:10:23;;;;;;;19.73;10.18;;;21.40;99.90;;;;;;5072447;28;20028;-74
2023/06/20 05:12:49;;;;;;;20.20;11.45;;;21.50;99.90;;;;;;5072553;28;20122;-76
2023/06/20 05:15:14;;;;;;;17.60;10.27;;;21.60;99.90;;;;;;5072631;28;20107;-77
2023/06/20 05:17:40;;;;;;;18.33;10.10;;;21.60;99.90;;;;;;5072604;28;20037;-74
2023/06/20 05:20:06;;;;;;;18.48;10.07;;;21.70;99.90;;;;;;5072710;28;20032;-77
2023/06/20 05:22:35;;;;;;;28.83;12.93;;;21.80;99.90;;;;;;5072542;28;20039;-76
2023/06/20 05:25:01;;;;;;;17.52;9.65;;;21.90;99.90;;;;;;5079912;28;20599;-77
2023/06/20 05:27:27;;;;;;;32.50;16.77;;;22.10;99.90;;;;;;5092217;28;20061;-75
2023/06/20 05:29:52;;;;;;;106.47;47.35;;;22.40;99.90;;;;;;5092687;28;20078;-75
2023/06/20 05:32:18;;;;;;;18.38;10.30;;;22.90;99.90;;;;;;5092530;28;20055;-75
2023/06/20 05:34:44;;;;;;;22.75;10.50;;;23.50;99.90;;;;;;5092518;28;20027;-76
2023/06/20 05:37:09;;;;;;;23.30;12.07;;;24.00;99.90;;;;;;5091924;28;20078;-74
2023/06/20 05:39:35;;;;;;;18.15;10.52;;;24.30;99.90;;;;;;5091952;28;20020;-76
2023/06/20 05:42:01;;;;;;;24.40;12.60;;;24.50;99.90;;;;;;5092414;28;20107;-76
2023/06/20 05:44:27;;;;;;;18.88;9.63;;;24.70;99.90;;;;;;5092085;28;20443;-74
2023/06/20 05:46:53;;;;;;;21.45;10.93;;;25.00;99.90;;;;;;5091938;28;20114;-75
2023/06/20 05:49:21;;;;;;;23.17;10.57;;;25.20;99.40;;;;;;5092614;28;20067;-75
2023/06/20 05:51:47;;;;;;;21.63;10.38;;;25.30;99.10;;;;;;5092157;28;20028;-75
2023/06/20 05:54:13;;;;;;;19.73;10.23;;;25.30;99.00;;;;;;5093454;28;20067;-76
2023/06/20 05:56:39;;;;;;;23.33;10.68;;;25.40;99.10;;;;;;5094539;28;20063;-74
2023/06/20 05:59:05;;;;;;;20.90;10.43;;;25.50;99.10;;;;;;5096365;28;20028;-74
2023/06/20 06:01:31;;;;;;;20.60;10.25;;;25.60;98.70;;;;;;5096212;28;20047;-75
2023/06/20 06:03:56;;;;;;;17.40;10.52;;;25.90;98.20;;;;;;5096218;28;20020;-76
2023/06/20 06:06:24;;;;;;;21.80;11.02;;;26.40;97.50;;;;;;5095630;28;20035;-77
2023/06/20 06:08:50;;;;;;;20.23;10.27;;;26.80;96.50;;;;;;5095862;28;20376;-76
2023/06/20 06:11:16;;;;;;;18.83;9.07;;;27.00;96.10;;;;;;5096110;28;20105;-74
2023/06/20 06:13:41;;;;;;;19.45;10.05;;;27.20;95.70;;;;;;5095871;28;20067;-75
2023/06/20 06:16:07;;;;;;;13.70;7.85;;;27.30;95.60;;;;;;5093650;28;20715;-75
2023/06/20 06:18:33;;;;;;;12.43;7.57;;;27.40;95.10;;;;;;5096336;28;20039;-76
2023/06/20 06:20:59;;;;;;;13.80;7.35;;;27.60;95.00;;;;;;5095651;28;20063;-75
2023/06/20 06:23:25;;;;;;;13.50;7.38;;;28.00;94.20;;;;;;5094357;28;20040;-78
2023/06/20 06:25:52;;;;;;;14.38;7.68;;;28.30;93.40;;;;;;5095560;28;20034;-76
2023/06/20 06:28:17;;;;;;;25.92;17.85;;;28.50;93.20;;;;;;5096007;28;20031;-76
2023/06/20 06:30:43;;;;;;;14.90;7.20;;;28.60;92.90;;;;;;5095132;28;20036;-75
2023/06/20 06:33:10;;;;;;;13.48;7.05;;;28.90;92.40;;;;;;5095589;28;20048;-76
2023/06/20 06:35:36;;;;;;;11.30;6.72;;;29.00;92.00;;;;;;5093543;28;20353;-76
2023/06/20 06:38:03;;;;;;;13.35;7.28;;;29.10;91.90;;;;;;5095515;28;20028;-75
2023/06/20 06:40:29;;;;;;;792.47;140.05;;;29.00;91.90;;;;;;5095578;28;20062;-75
2023/06/20 06:42:55;;;;;;;24.10;9.27;;;28.70;92.00;;;;;;5095060;28;20075;-75
2023/06/20 06:45:20;;;;;;;13.68;7.40;;;28.50;92.10;;;;;;5095658;28;20028;-75
2023/06/20 06:47:46;;;;;;;14.65;7.53;;;28.40;92.30;;;;;;5092429;28;20032;-75
2023/06/20 06:50:12;;;;;;;38.58;10.68;;;28.30;92.10;;;;;;5094862;28;20480;-74
2023/06/20 06:52:39;;;;;;;18.30;7.93;;;28.10;92.30;;;;;;5095313;28;20044;-76
2023/06/20 06:55:05;;;;;;;16.08;7.80;;;28.00;92.70;;;;;;5095491;28;20070;-74
2023/06/20 06:57:30;;;;;;;12.52;7.38;;;28.10;92.50;;;;;;5094334;28;20028;-75
2023/06/20 06:59:56;;;;;;;15.50;7.25;;;28.10;92.40;;;;;;5094744;28;20027;-75
2023/06/20 07:02:22;;;;;;;14.07;7.75;;;28.30;92.50;;;;;;5095462;28;20031;-75
2023/06/20 07:04:47;;;;;;;15.25;7.55;;;28.60;92.00;;;;;;5094384;28;20040;-76
2023/06/20 07:07:13;;;;;;;27.45;9.93;;;28.90;91.90;;;;;;5095019;28;20035;-77
2023/06/20 07:09:39;;;;;;;605.47;118.75;;;29.10;91.40;;;;;;5095293;28;20375;-75
2023/06/20 07:12:05;;;;;;;1819.03;333.77;;;29.10;90.90;;;;;;5095012;28;20031;-73
2023/06/20 07:14:32;;;;;;;20.27;9.23;;;29.00;91.00;;;;;;5093670;28;20433;-75
2023/06/20 07:16:57;;;;;;;156.10;25.33;;;29.00;90.90;;;;;;5094780;28;20078;-76
2023/06/20 07:19:23;;;;;;;49.30;14.05;;;28.90;91.10;;;;;;5094674;28;20036;-75
2023/06/20 07:21:49;;;;;;;1999.90;388.45;;;29.10;90.70;;;;;;5093228;28;20024;-74
2023/06/20 07:24:14;;;;;;;1522.75;262.27;;;29.30;90.70;;;;;;5091527;28;20511;-77
2023/06/20 07:26:40;;;;;;;26.23;8.52;;;29.50;90.50;;;;;;5093310;28;20085;-75
2023/06/20 07:29:05;;;;;;;15.65;8.75;;;29.70;90.20;;;;;;5093331;28;20089;-74
2023/06/20 07:31:31;;;;;;;25.50;9.52;;;29.70;90.00;;;;;;5091978;28;20020;-74
2023/06/20 07:33:56;;;;;;;18.38;9.60;;;29.80;89.70;;;;;;5093055;28;20044;-74
2023/06/20 07:36:22;;;;;;;16.15;8.82;;;30.30;89.20;;;;;;5092986;28;20022;-75
2023/06/20 07:38:47;;;;;;;14.75;8.52;;;30.90;88.10;;;;;;5092851;28;20028;-73
2023/06/20 07:41:13;;;;;;;126.05;17.85;;;31.90;86.20;;;;;;5094303;28;20413;-77
2023/06/20 07:43:38;;;;;;;15.52;8.50;;;32.80;84.20;;;;;;5094199;28;20471;-74
2023/06/20 07:46:04;;;;;;;12.60;8.45;;;33.50;82.30;;;;;;5092924;28;20444;-76
2023/06/20 07:48:30;;;;;;;21.30;10.48;;;34.20;81.10;;;;;;5094016;28;20099;-74
2023/06/20 07:50:56;;;;;;;14.02;8.90;;;34.30;79.90;;;;;;5094126;28;20024;-74
2023/06/20 07:53:22;;;;;;;15.43;9.73;;;34.00;80.10;;;;;;5092682;28;20478;-73
2023/06/20 07:55:48;;;;;;;14.18;9.27;;;33.50;80.60;;;;;;5093697;28;20165;-75
2023/06/20 07:58:14;;;;;;;19.48;10.07;;;33.10;81.20;;;;;;5094050;28;20481;-74
2023/06/20 08:00:40;;;;;;;18.08;11.02;;;33.20;81.10;;;;;;5093799;28;20028;-75
2023/06/20 08:03:06;;;;;;;35.85;10.57;;;33.30;80.40;;;;;;5093402;28;20107;-76
2023/06/20 08:05:32;;;;;;;18.65;9.85;;;33.00;80.80;;;;;;5093741;28;20162;-75
2023/06/20 08:07:57;;;;;;;20.77;9.70;;;32.90;81.40;;;;;;5093905;28;20028;-75
2023/06/20 08:10:23;;;;;;;15.65;9.80;;;33.00;81.70;;;;;;5093271;28;20113;-78
2023/06/20 08:12:48;;;;;;;15.93;10.38;;;33.30;81.10;;;;;;5093783;28;20043;-75
2023/06/20 08:15:14;;;;;;;16.73;9.55;;;33.70;80.60;;;;;;5092422;28;20097;-74
2023/06/20 08:17:39;;;;;;;16.25;9.18;;;34.10;80.20;;;;;;5092879;28;20433;-73
2023/06/20 08:20:09;;;;;;;16.35;9.63;;;34.50;79.90;;;;;;5092330;28;20119;-76
2023/06/20 08:22:35;;;;;;;17.30;9.77;;;34.90;78.60;;;;;;5093920;28;20148;-74
2023/06/20 08:25:01;;;;;;;19.13;10.63;;;35.30;77.90;;;;;;5093697;28;20062;-73
2023/06/20 08:27:27;;;;;;;16.80;9.60;;;36.10;77.00;;;;;;5093902;28;20059;-74
2023/06/20 08:29:52;;;;;;;14.73;9.38;;;36.80;75.90;;;;;;5093598;28;20059;-74
2023/06/20 08:32:18;;;;;;;20.25;10.10;;;37.60;74.70;;;;;;5092743;28;20058;-74
2023/06/20 08:34:43;;;;;;;17.42;9.48;;;38.30;73.50;;;;;;5093591;28;20024;-78
2023/06/20 08:37:09;;;;;;;18.33;10.23;;;38.70;71.80;;;;;;5093401;28;20483;-76
2023/06/20 08:39:35;;;;;;;17.98;10.07;;;39.30;71.10;;;;;;5093352;28;20349;-76
2023/06/20 08:42:01;;;;;;;17.35;10.32;;;40.00;70.00;;;;;;5093430;28;20024;-75
2023/06/20 08:44:27;;;;;;;17.10;10.00;;;40.70;69.00;;;;;;5093224;28;20095;-74
2023/06/20 08:46:57;;;;;;;16.55;10.25;;;41.30;67.50;;;;;;5093185;28;20024;-75
2023/06/20 08:49:26;;;;;;;16.58;10.05;;;42.00;66.80;;;;;;5092010;28;20032;-74
2023/06/20 08:51:57;;;;;;;15.27;9.75;;;42.50;65.30;;;;;;5093287;28;20020;-75
2023/06/20 08:54:23;;;;;;;16.27;9.75;;;43.00;64.30;;;;;;5092969;28;20054;-74
2023/06/20 08:56:49;;;;;;;16.55;9.52;;;43.20;63.70;;;;;;5093200;28;20055;-74
2023/06/20 08:59:15;;;;;;;15.85;11.18;;;43.70;63.10;;;;;;5092827;28;20133;-74
2023/06/20 09:01:41;;;;;;;14.95;10.57;;;44.10;61.70;;;;;;5093229;28;20020;-74
2023/06/20 09:04:09;;;;;;;14.63;10.50;;;44.00;61.50;;;;;;5093179;28;20058;-75
2023/06/20 09:06:38;;;;;;;14.43;9.82;;;43.70;61.60;;;;;;5092957;28;20031;-74
2023/06/20 09:09:18;;;;;;;16.33;10.40;;;43.70;61.40;;;;;;5093362;28;20028;-75
2023/06/20 09:11:57;;;;;;;17.58;11.05;;;43.80;60.90;;;;;;5091610;28;20377;-74
2023/06/20 09:14:26;;;;;;;17.92;10.48;;;43.80;60.50;;;;;;5092860;28;20040;-74
2023/06/20 09:16:52;;;;;;;17.07;9.87;;;43.70;60.70;;;;;;5092785;28;20095;-75
2023/06/20 09:19:18;;;;;;;16.38;9.73;;;43.90;60.70;;;;;;5093063;28;20177;-77
2023/06/20 09:21:44;;;;;;;13.77;9.77;;;44.20;60.10;;;;;;5092692;28;20020;-78
2023/06/20 09:24:09;;;;;;;17.98;10.57;;;44.10;60.00;;;;;;5092548;28;20027;-77
2023/06/20 09:26:35;;;;;;;17.27;11.20;;;43.90;59.90;;;;;;5092782;28;20031;-75
2023/06/20 09:29:14;;;;;;;17.25;10.05;;;43.80;59.70;;;;;;5092388;28;20111;-74
2023/06/20 09:31:47;;;;;;;20.02;10.82;;;44.00;59.60;;;;;;5092293;28;20467;-74
2023/06/20 09:34:15;;;;;;;22.83;10.70;;;43.80;59.90;;;;;;5092863;28;20040;-74
2023/06/20 09:36:41;;;;;;;16.27;10.00;;;43.80;59.10;;;;;;5092516;28;20769;-73
2023/06/20 09:39:20;;;;;;;17.25;9.38;;;43.80;58.80;;;;;;5092359;28;20031;-73
2023/06/20 09:41:50;;;;;;;16.33;12.88;;;43.90;58.70;;;;;;5092570;28;20035;-75
2023/06/20 09:44:17;;;;;;;20.40;12.20;;;44.40;58.30;;;;;;5092459;28;20077;-76
2023/06/20 09:46:43;;;;;;;36.13;11.40;;;44.80;58.00;;;;;;5092627;28;20264;-74
2023/06/20 09:49:12;;;;;;;22.88;10.00;;;44.90;57.70;;;;;;5091899;28;20031;-75
2023/06/20 09:51:54;;;;;;;16.98;10.98;;;44.70;57.10;;;;;;5092115;28;20133;-74
2023/06/20 09:54:39;;;;;;;18.92;10.82;;;44.40;57.80;;;;;;5091974;28;20055;-73
2023/06/20 09:57:08;;;;;;;17.02;10.95;;;44.10;58.20;;;;;;5091336;28;20028;-73
2023/06/20 09:59:38;;;;;;;16.10;11.02;;;44.00;58.30;;;;;;5091844;28;20069;-74
2023/06/20 10:02:07;;;;;;;25.30;10.88;;;44.20;58.40;;;;;;5092492;28;20034;-74
2023/06/20 10:04:39;;;;;;;18.55;9.88;;;44.30;58.20;;;;;;5091839;28;20358;-76
2023/06/20 10:07:05;;;;;;;15.52;9.93;;;44.10;57.90;;;;;;5092452;28;20024;-74
2023/06/20 10:09:31;;;;;;;18.92;11.63;;;44.00;58.00;;;;;;5091949;28;20128;-77
2023/06/20 10:11:57;;;;;;;17.63;9.73;;;44.00;58.10;;;;;;5092414;28;20040;-75
2023/06/20 10:14:23;;;;;;;16.80;9.73;;;44.20;57.90;;;;;;5081174;28;20514;-74
2023/06/20 10:16:52;;;;;;;42.50;11.45;;;44.70;57.40;;;;;;5080653;28;20154;-76
2023/06/20 10:19:19;;;;;;;15.27;10.98;;;45.00;56.80;;;;;;5089954;28;20392;-74
2023/06/20 10:22:01;;;;;;;18.45;11.48;;;44.80;57.80;;;;;;5091004;28;20025;-74
2023/06/20 10:24:29;;;;;;;16.40;11.48;;;44.10;57.50;;;;;;5090435;28;20035;-74
2023/06/20 10:26:59;;;;;;;19.40;13.15;;;43.60;57.90;;;;;;5112360;28;20162;-77
2023/06/20 10:29:25;;;;;;;;;;;43.20;58.30;;;;;;5102031;28;20460;-75
2023/06/20 10:32:02;;;;;;;27.92;13.70;;;43.00;58.40;;;;;;5091316;28;19904;-74
2023/06/20 10:34:49;;;;;;;18.48;13.73;;;43.10;58.50;;;;;;5091980;28;20058;-74
2023/06/20 10:37:27;;;;;;;21.33;13.30;;;43.50;58.50;;;;;;5075085;28;20016;-75
2023/06/20 10:39:54;;;;;;;46.15;17.02;;;43.90;58.20;;;;;;5091638;28;20364;-73
2023/06/20 10:42:38;;;;;;;18.98;14.57;;;44.00;57.90;;;;;;5095446;28;20537;-75
2023/06/20 10:45:23;;;;;;;18.90;13.07;;;43.50;58.50;;;;;;5095773;28;20039;-74
2023/06/20 10:47:49;;;;;;;16.15;11.73;;;43.70;58.70;;;;;;5095315;28;20081;-75
2023/06/20 10:50:16;;;;;;;15.77;10.45;;;44.20;58.00;;;;;;5094335;28;20066;-75
2023/06/20 10:52:42;;;;;;;10.85;8.30;;;44.60;57.60;;;;;;5095540;28;20462;-75
2023/06/20 10:55:36;;;;;;;58.85;11.98;;;44.80;56.90;;;;;;5095244;28;20100;-73
2023/06/20 10:58:01;;;;;;;56.38;10.40;;;44.70;56.60;;;;;;5074680;28;20031;-76
2023/06/20 11:00:27;;;;;;;53.83;10.23;;;44.20;56.70;;;;;;5078503;28;20400;-74
2023/06/20 11:02:54;;;;;;;15.43;7.00;;;43.70;57.30;;;;;;5093206;28;20471;-76
2023/06/20 11:05:38;;;;;;;13.30;6.57;;;43.00;58.00;;;;;;5094054;28;20023;-72
2023/06/20 11:08:05;;;;;;;12.38;6.68;;;42.60;58.40;;;;;;5095405;28;20376;-73
2023/06/20 11:10:34;;;;;;;9.35;6.82;;;42.60;58.40;;;;;;5093617;28;20027;-74
2023/06/20 11:13:03;;;;;;;10.98;6.40;;;42.40;58.80;;;;;;5083138;28;20040;-75
2023/06/20 11:15:36;;;;;;;15.02;7.15;;;42.30;58.90;;;;;;5093377;28;20071;-74
2023/06/20 11:18:03;;;;;;;10.73;5.80;;;42.20;58.50;;;;;;5081454;28;20028;-75
2023/06/20 11:20:29;;;;;;;8.68;5.47;;;42.10;58.80;;;;;;5091405;28;20155;-74
2023/06/20 11:22:57;;;;;;;11.25;6.45;;;42.40;58.70;;;;;;5094472;28;20035;-75
2023/06/20 11:25:32;;;;;;;8.30;6.38;;;42.70;57.90;;;;;;5094714;28;20028;-74
2023/06/20 11:28:11;;;;;;;61.42;11.02;;;42.60;58.20;;;;;;5094937;28;20024;-74
2023/06/20 11:30:39;;;;;;;14.32;5.57;;;42.60;57.60;;;;;;5093554;28;20024;-75
2023/06/20 11:33:06;;;;;;;15.63;6.45;;;42.30;57.60;;;;;;5094273;28;20059;-73
2023/06/20 11:35:58;;;;;;;7.18;5.32;;;42.00;57.80;;;;;;5094473;28;20039;-76
2023/06/20 11:38:26;;;;;;;11.50;6.47;;;41.70;57.80;;;;;;5091179;28;20037;-75
2023/06/20 11:41:06;;;;;;;9.32;5.43;;;41.40;58.30;;;;;;5074353;28;20421;-77
2023/06/20 11:43:42;;;;;;;9.07;5.38;;;41.40;58.20;;;;;;5074892;28;20029;-74
2023/06/20 11:46:10;;;;;;;9.07;5.20;;;41.80;57.50;;;;;;5093787;28;20624;-74
2023/06/20 11:48:36;;;;;;;14.02;6.20;;;42.40;57.70;;;;;;5077091;28;20025;-74
2023/06/20 11:51:06;;;;;;;12.25;6.00;;;42.80;57.50;;;;;;5094280;28;20031;-74
2023/06/20 11:53:36;;;;;;;7.03;5.03;;;43.20;57.60;;;;;;5091178;28;20078;-73
2023/06/20 11:56:04;;;;;;;7.88;5.45;;;43.50;57.50;;;;;;5089022;28;20361;-75
2023/06/20 11:58:56;;;;;;;11.02;5.60;;;44.20;57.40;;;;;;5073154;28;20472;-74
2023/06/20 12:01:24;;;;;;;8.32;5.28;;;44.70;56.60;;;;;;5087968;28;20032;-74
2023/06/20 12:04:14;;;;;;;27.95;6.40;;;45.00;56.50;;;;;;5093113;28;20033;-76
2023/06/20 12:06:44;;;;;;;7.57;5.47;;;44.60;56.70;;;;;;5094194;28;20349;-74
2023/06/20 12:09:16;;;;;;;66.35;10.75;;;44.30;56.60;;;;;;5093706;28;20017;-74
2023/06/20 12:11:52;;;;;;;11.45;6.47;;;44.20;56.70;;;;;;5093436;28;20073;-76
2023/06/20 12:14:18;;;;;;;8.27;5.80;;;44.00;56.90;;;;;;5093887;28;20039;-74
2023/06/20 12:16:44;;;;;;;8.63;5.28;;;44.10;57.30;;;;;;5093659;28;20084;-74
2023/06/20 12:19:10;;;;;;;25.55;7.20;;;44.20;57.10;;;;;;5092898;28;20484;-73
2023/06/20 12:21:39;;;;;;;284.00;38.88;;;44.30;56.90;;;;;;5092111;28;20111;-73
2023/06/20 12:24:06;;;;;;;11.77;6.40;;;43.90;57.10;;;;;;5092597;28;20020;-73
2023/06/20 12:26:32;;;;;;;9.68;6.75;;;42.90;57.70;;;;;;5092450;28;20024;-74
2023/06/20 12:28:57;;;;;;;13.52;6.95;;;42.50;58.20;;;;;;5093552;28;20024;-73
2023/06/20 12:31:24;;;;;;;8.25;5.53;;;42.40;58.50;;;;;;5093300;28;20036;-75
2023/06/20 12:33:50;;;;;;;9.32;6.35;;;42.60;58.40;;;;;;5092928;28;20150;-74
2023/06/20 12:36:16;;;;;;;8.15;6.00;;;42.40;58.00;;;;;;5091509;28;20426;-74
2023/06/20 12:38:42;;;;;;;10.43;5.50;;;42.00;58.20;;;;;;5092137;28;20020;-71